createdAt,value
2019-05-29T00:00:25.181Z,6.70
2019-05-29T00:02:56.889Z,5.77
2019-05-29T00:05:28.571Z,5.83
2019-05-29T00:08:00.151Z,5.87
2019-05-29T00:10:31.971Z,6.13
2019-05-29T00:13:03.474Z,6.77
2019-05-29T00:15:35.283Z,10.37
2019-05-29T00:18:06.832Z,5.50
2019-05-29T00:20:38.413Z,8.03
2019-05-29T00:23:10.478Z,6.57
2019-05-29T00:25:42.016Z,5.73
2019-05-29T00:28:14.763Z,6.13
2019-05-29T00:30:47.639Z,6.33
2019-05-29T00:33:19.247Z,6.40
2019-05-29T00:35:50.812Z,8.53
2019-05-29T00:38:22.354Z,6.13
2019-05-29T00:41:02.596Z,7.87
2019-05-29T00:43:53.806Z,4.70
2019-05-29T00:46:27.708Z,7.60
2019-05-29T00:48:59.312Z,7.00
2019-05-29T00:51:30.922Z,4.80
2019-05-29T00:54:02.459Z,7.50
2019-05-29T00:56:33.973Z,6.70
2019-05-29T00:59:05.562Z,7.37
2019-05-29T01:01:37.473Z,7.23
2019-05-29T01:04:09.585Z,7.73
2019-05-29T01:06:41.422Z,6.47
2019-05-29T01:09:12.939Z,6.57
2019-05-29T01:11:44.535Z,6.47
2019-05-29T01:14:17.168Z,5.93
2019-05-29T01:16:48.832Z,7.67
2019-05-29T01:19:26.150Z,7.13
2019-05-29T01:21:58.520Z,8.00
2019-05-29T01:24:30.533Z,8.33
2019-05-29T01:27:02.282Z,7.83
2019-05-29T01:29:33.897Z,6.10
2019-05-29T01:32:05.451Z,9.70
2019-05-29T01:34:36.939Z,6.87
2019-05-29T01:37:08.429Z,8.60
2019-05-29T01:39:40.571Z,6.73
2019-05-29T01:42:12.062Z,9.20
2019-05-29T01:44:43.680Z,6.37
2019-05-29T01:47:15.421Z,6.87
2019-05-29T01:49:46.922Z,7.10
2019-05-29T01:52:19.572Z,10.10
2019-05-29T01:54:51.495Z,8.53
2019-05-29T01:57:23.797Z,8.23
2019-05-29T01:59:55.381Z,10.07
2019-05-29T02:02:28.150Z,9.80
2019-05-29T02:05:00.115Z,7.87
2019-05-29T02:07:31.656Z,8.03
2019-05-29T02:10:03.131Z,8.17
2019-05-29T02:12:34.699Z,7.50
2019-05-29T02:15:21.085Z,10.60
2019-05-29T02:17:40.999Z,9.50
2019-05-29T02:20:12.907Z,10.67
2019-05-29T02:22:44.431Z,9.17
2019-05-29T02:25:17.694Z,9.83
2019-05-29T02:27:49.398Z,10.13
2019-05-29T02:30:23.608Z,9.23
2019-05-29T02:32:54.511Z,9.60
2019-05-29T02:35:28.778Z,8.23
2019-05-29T02:37:59.784Z,9.40
2019-05-29T02:40:32.000Z,8.53
2019-05-29T02:43:03.747Z,9.17
2019-05-29T02:45:53.176Z,8.10
2019-05-29T02:48:08.537Z,9.07
2019-05-29T02:50:40.371Z,11.90
2019-05-29T02:53:12.258Z,10.50
2019-05-29T02:55:43.923Z,10.70
2019-05-29T02:58:15.476Z,10.67
2019-05-29T03:00:56.656Z,8.33
2019-05-29T03:03:29.976Z,10.03
2019-05-29T03:06:01.435Z,9.23
2019-05-29T03:08:34.386Z,12.93
2019-05-29T03:11:06.428Z,8.63
2019-05-29T03:13:37.900Z,10.27
2019-05-29T03:16:12.413Z,7.77
2019-05-29T03:18:42.540Z,7.60
2019-05-29T03:21:14.272Z,8.10
2019-05-29T03:23:45.788Z,6.87
2019-05-29T03:26:17.609Z,7.50
2019-05-29T03:28:49.074Z,6.67
2019-05-29T03:31:21.266Z,7.17
2019-05-29T03:33:53.789Z,5.97
2019-05-29T03:36:28.390Z,8.03
2019-05-29T03:38:58.467Z,7.00
2019-05-29T03:41:30.310Z,8.93
2019-05-29T03:44:01.732Z,7.33
2019-05-29T03:46:41.273Z,7.63
2019-05-29T03:49:06.506Z,10.13
2019-05-29T03:51:39.038Z,8.63
2019-05-29T03:54:10.855Z,10.57
2019-05-29T03:56:42.220Z,8.23
2019-05-29T03:59:13.845Z,9.10
2019-05-29T04:01:45.256Z,10.27
2019-05-29T04:04:16.723Z,7.60
2019-05-29T04:06:48.833Z,9.07
2019-05-29T04:09:20.313Z,10.37
2019-05-29T04:11:52.127Z,8.00
2019-05-29T04:14:24.602Z,7.30
2019-05-29T04:17:00.223Z,9.53
2019-05-29T04:19:34.933Z,7.27
2019-05-29T04:22:11.253Z,8.73
2019-05-29T04:24:42.730Z,9.63
2019-05-29T04:27:15.988Z,8.83
2019-05-29T04:29:48.854Z,8.60
2019-05-29T04:32:20.383Z,9.27
2019-05-29T04:34:52.320Z,8.93
2019-05-29T04:37:25.254Z,8.70
2019-05-29T04:39:56.978Z,7.40
2019-05-29T04:42:29.608Z,7.63
2019-05-29T04:45:01.891Z,9.90
2019-05-29T04:47:35.105Z,10.63
2019-05-29T04:50:06.884Z,8.07
2019-05-29T04:52:40.216Z,8.10
2019-05-29T04:55:12.405Z,8.37
2019-05-29T04:57:43.884Z,8.70
2019-05-29T05:00:15.809Z,11.20
2019-05-29T05:02:47.357Z,9.13
2019-05-29T05:05:19.729Z,9.17
2019-05-29T05:07:53.312Z,10.53
2019-05-29T05:10:43.686Z,8.87
2019-05-29T05:13:15.200Z,8.33
2019-05-29T05:15:48.817Z,9.30
2019-05-29T05:18:20.148Z,8.37
2019-05-29T05:20:51.956Z,8.37
2019-05-29T05:23:23.366Z,8.07
2019-05-29T05:25:54.839Z,10.03
2019-05-29T05:28:26.592Z,8.93
2019-05-29T05:30:58.141Z,8.57
2019-05-29T05:33:30.399Z,7.70
2019-05-29T05:36:02.341Z,8.97
2019-05-29T05:38:34.682Z,9.57
2019-05-29T05:41:06.384Z,8.47
2019-05-29T05:43:38.985Z,8.30
2019-05-29T05:46:10.577Z,9.27
2019-05-29T05:48:42.125Z,8.03
2019-05-29T05:51:13.699Z,7.13
2019-05-29T05:53:45.255Z,7.00
2019-05-29T05:56:16.722Z,8.53
2019-05-29T05:58:48.345Z,8.53
2019-05-29T06:01:19.877Z,9.07
2019-05-29T06:03:51.656Z,7.57
2019-05-29T06:06:23.092Z,9.13
2019-05-29T06:08:54.528Z,9.13
2019-05-29T06:11:26.120Z,8.13
2019-05-29T06:13:57.858Z,8.03
2019-05-29T06:16:29.335Z,7.77
2019-05-29T06:19:01.262Z,10.13
2019-05-29T06:21:32.724Z,8.37
2019-05-29T06:24:04.288Z,7.87
2019-05-29T06:26:36.783Z,7.63
2019-05-29T06:29:08.342Z,9.90
2019-05-29T06:31:41.351Z,8.37
2019-05-29T06:34:12.992Z,8.50
2019-05-29T06:36:47.895Z,10.03
2019-05-29T06:39:18.025Z,11.37
2019-05-29T06:41:49.535Z,12.17
2019-05-29T06:44:21.427Z,10.10
2019-05-29T06:46:52.906Z,9.60
2019-05-29T06:49:24.411Z,10.60
2019-05-29T06:51:56.317Z,9.07
2019-05-29T06:54:28.071Z,8.77
2019-05-29T06:56:59.876Z,9.40
2019-05-29T06:59:31.420Z,10.60
2019-05-29T07:02:02.891Z,10.10
2019-05-29T07:04:34.414Z,9.80
2019-05-29T07:07:06.296Z,11.40
2019-05-29T07:09:38.815Z,10.87
2019-05-29T07:12:10.477Z,9.40
2019-05-29T07:14:42.495Z,11.60
2019-05-29T07:17:13.934Z,10.60
2019-05-29T07:19:58.146Z,9.20
2019-05-29T07:22:18.969Z,9.87
2019-05-29T07:24:50.452Z,9.50
2019-05-29T07:27:21.934Z,10.50
2019-05-29T07:29:53.448Z,10.73
2019-05-29T07:32:25.240Z,10.57
2019-05-29T07:35:03.884Z,11.77
2019-05-29T07:37:30.138Z,10.30
2019-05-29T07:40:01.991Z,12.10
2019-05-29T07:42:33.464Z,11.87
2019-05-29T07:45:06.352Z,15.17
2019-05-29T07:47:38.310Z,10.47
2019-05-29T07:50:11.261Z,12.63
2019-05-29T07:52:44.141Z,11.67
2019-05-29T07:55:16.072Z,10.80
2019-05-29T07:57:48.864Z,10.97
2019-05-29T08:00:22.710Z,9.93
2019-05-29T08:02:54.116Z,9.40
2019-05-29T08:05:25.576Z,9.97
2019-05-29T08:07:56.988Z,8.03
2019-05-29T08:10:28.525Z,10.70
2019-05-29T08:13:00.038Z,10.00
2019-05-29T08:15:32.287Z,8.20
2019-05-29T08:18:03.821Z,11.73
2019-05-29T08:20:35.334Z,10.63
2019-05-29T08:23:06.800Z,9.60
2019-05-29T08:25:38.302Z,7.47
2019-05-29T08:28:11.318Z,8.63
2019-05-29T08:30:48.347Z,10.60
2019-05-29T08:33:17.079Z,8.47
2019-05-29T08:35:57.698Z,7.97
2019-05-29T08:38:21.825Z,9.30
2019-05-29T08:40:53.275Z,9.00
2019-05-29T08:43:25.093Z,9.40
2019-05-29T08:45:56.555Z,7.83
2019-05-29T08:48:28.039Z,7.07
2019-05-29T08:50:59.743Z,11.53
2019-05-29T08:53:31.302Z,7.27
2019-05-29T08:56:02.845Z,8.33
2019-05-29T08:58:37.207Z,7.83
2019-05-29T09:01:07.992Z,7.23
2019-05-29T09:03:39.751Z,8.33
2019-05-29T09:06:13.613Z,7.63
2019-05-29T09:08:46.222Z,6.93
2019-05-29T09:11:17.499Z,5.93
2019-05-29T09:13:48.986Z,6.73
2019-05-29T09:16:20.499Z,5.20
2019-05-29T09:18:52.039Z,7.27
2019-05-29T09:21:26.635Z,5.57
2019-05-29T09:23:59.045Z,6.00
2019-05-29T09:26:30.743Z,5.87
2019-05-29T09:29:02.553Z,4.50
2019-05-29T09:31:34.070Z,6.13
2019-05-29T09:34:05.885Z,5.10
2019-05-29T09:36:37.400Z,5.77
2019-05-29T09:39:09.791Z,4.67
2019-05-29T09:41:41.210Z,4.37
2019-05-29T09:44:28.230Z,3.93
2019-05-29T09:46:45.782Z,5.07
2019-05-29T09:49:18.274Z,5.30
2019-05-29T09:51:49.922Z,4.43
2019-05-29T09:54:21.503Z,4.53
2019-05-29T09:56:56.122Z,4.70
2019-05-29T09:59:27.570Z,4.20
2019-05-29T10:02:00.321Z,4.30
2019-05-29T10:04:32.222Z,4.17
2019-05-29T10:07:04.790Z,3.67
2019-05-29T10:09:36.764Z,4.70
2019-05-29T10:12:08.704Z,3.97
2019-05-29T10:14:40.160Z,4.67
2019-05-29T10:17:13.266Z,4.17
2019-05-29T10:19:45.336Z,4.60
2019-05-29T10:22:16.935Z,4.60
2019-05-29T10:24:48.438Z,6.17
2019-05-29T10:27:20.540Z,4.00
2019-05-29T10:29:53.954Z,2.70
2019-05-29T10:32:25.835Z,4.23
2019-05-29T10:34:57.373Z,3.80
2019-05-29T10:37:28.965Z,5.17
2019-05-29T10:40:00.437Z,3.70
2019-05-29T10:42:32.018Z,3.53
2019-05-29T10:45:03.517Z,3.20
2019-05-29T10:47:35.060Z,3.40
2019-05-29T10:50:07.736Z,3.00
2019-05-29T10:52:39.270Z,4.20
2019-05-29T10:55:11.262Z,3.70
2019-05-29T10:57:44.617Z,3.33
2019-05-29T11:00:18.578Z,3.57
2019-05-29T11:02:53.097Z,3.70
2019-05-29T11:05:23.367Z,3.20
2019-05-29T11:07:55.959Z,4.70
2019-05-29T11:10:27.596Z,4.43
2019-05-29T11:12:59.369Z,4.60
2019-05-29T11:15:30.842Z,2.10
2019-05-29T11:18:02.342Z,3.93
2019-05-29T11:20:33.857Z,2.23
2019-05-29T11:23:05.643Z,3.70
2019-05-29T11:25:37.588Z,2.17
2019-05-29T11:28:09.100Z,2.43
2019-05-29T11:30:40.649Z,2.83
2019-05-29T11:33:12.072Z,3.20
2019-05-29T11:35:58.120Z,2.70
2019-05-29T11:38:17.104Z,3.17
2019-05-29T11:40:49.096Z,3.93
2019-05-29T11:43:21.351Z,2.77
2019-05-29T11:45:53.151Z,3.17
2019-05-29T11:48:25.023Z,3.80
2019-05-29T11:50:56.435Z,4.47
2019-05-29T11:53:28.228Z,3.20
2019-05-29T11:55:59.971Z,7.10
2019-05-29T11:58:31.951Z,3.13
2019-05-29T12:01:03.428Z,3.20
2019-05-29T12:03:35.157Z,4.80
2019-05-29T12:06:06.803Z,4.17
2019-05-29T12:08:38.267Z,3.73
2019-05-29T12:11:09.828Z,3.80
2019-05-29T12:13:41.291Z,4.13
2019-05-29T12:16:12.797Z,4.43
2019-05-29T12:18:44.899Z,2.40
2019-05-29T12:21:16.428Z,3.83
2019-05-29T12:23:47.858Z,3.00
2019-05-29T12:26:22.743Z,3.60
2019-05-29T12:28:53.967Z,4.13
2019-05-29T12:31:26.397Z,3.13
2019-05-29T12:34:04.524Z,2.70
2019-05-29T12:36:31.347Z,3.53
2019-05-29T12:39:04.193Z,4.23
2019-05-29T12:41:36.156Z,2.90
2019-05-29T12:44:08.005Z,2.27
2019-05-29T12:46:39.417Z,2.30
2019-05-29T12:49:11.349Z,2.20
2019-05-29T12:51:42.947Z,2.17
2019-05-29T12:54:14.368Z,2.43
2019-05-29T12:56:45.829Z,1.67
2019-05-29T12:59:17.358Z,1.70
2019-05-29T13:01:48.821Z,2.97
2019-05-29T13:04:20.281Z,2.13
2019-05-29T13:06:51.773Z,3.00
2019-05-29T13:09:23.325Z,1.97
2019-05-29T13:11:54.697Z,1.20
2019-05-29T13:14:26.168Z,1.83
2019-05-29T13:16:58.798Z,1.23
2019-05-29T13:19:30.496Z,2.90
2019-05-29T13:22:03.471Z,2.37
2019-05-29T13:24:35.125Z,1.43
2019-05-29T13:27:06.721Z,1.57
2019-05-29T13:29:38.367Z,2.87
2019-05-29T13:32:09.910Z,1.67
2019-05-29T13:34:41.785Z,1.17
2019-05-29T13:37:13.273Z,1.23
2019-05-29T13:39:45.009Z,3.83
2019-05-29T13:42:16.498Z,1.00
2019-05-29T13:44:48.044Z,3.20
2019-05-29T13:47:19.864Z,1.22
2019-05-29T13:49:51.625Z,1.98
2019-05-29T13:52:23.121Z,2.05
2019-05-29T13:54:54.481Z,1.20
2019-05-29T13:57:25.960Z,1.62
2019-05-29T13:59:57.876Z,1.70
2019-05-29T14:02:30.731Z,1.20
2019-05-29T14:05:02.814Z,3.03
2019-05-29T14:07:35.635Z,1.20
2019-05-29T14:10:09.477Z,4.87
2019-05-29T14:12:41.489Z,3.20
2019-05-29T14:15:13.311Z,3.87
2019-05-29T14:17:45.111Z,33.20
2019-05-29T14:20:17.194Z,10.80
2019-05-29T14:22:49.094Z,2.60
2019-05-29T14:25:20.580Z,1.60
2019-05-29T14:27:52.395Z,1.77
2019-05-29T14:30:24.436Z,1.40
2019-05-29T14:32:56.036Z,1.37
2019-05-29T14:35:27.544Z,2.00
2019-05-29T14:37:59.125Z,2.00
2019-05-29T14:40:30.515Z,1.27
2019-05-29T14:43:01.983Z,2.53
2019-05-29T14:45:34.449Z,2.00
2019-05-29T14:48:06.311Z,1.73
2019-05-29T14:50:37.805Z,1.60
2019-05-29T14:53:10.914Z,1.23
2019-05-29T14:55:42.651Z,1.30
2019-05-29T14:58:14.206Z,3.60
2019-05-29T15:00:45.819Z,2.30
2019-05-29T15:03:17.576Z,2.30
2019-05-29T15:05:49.065Z,1.67
2019-05-29T15:08:20.566Z,4.03
2019-05-29T15:10:52.153Z,1.73
2019-05-29T15:13:24.552Z,2.37
2019-05-29T15:15:56.148Z,1.63
2019-05-29T15:18:27.583Z,2.57
2019-05-29T15:20:59.286Z,5.20
2019-05-29T15:23:30.655Z,4.13
2019-05-29T15:26:02.870Z,5.03
2019-05-29T15:28:34.181Z,4.67
2019-05-29T15:31:06.306Z,2.33
2019-05-29T15:33:37.809Z,3.73
2019-05-29T15:36:10.636Z,3.13
2019-05-29T15:38:42.117Z,1.80
2019-05-29T15:41:14.776Z,4.93
2019-05-29T15:43:49.244Z,3.53
2019-05-29T15:46:22.374Z,4.27
2019-05-29T15:48:54.411Z,2.53
2019-05-29T15:51:25.921Z,2.37
2019-05-29T15:53:57.416Z,3.20
2019-05-29T15:56:28.909Z,2.97
2019-05-29T15:59:00.333Z,5.30
2019-05-29T16:01:31.844Z,3.10
2019-05-29T16:04:03.371Z,5.87
2019-05-29T16:06:34.839Z,5.53
2019-05-29T16:09:10.221Z,3.67
2019-05-29T16:11:42.194Z,3.03
2019-05-29T16:14:14.850Z,2.03
2019-05-29T16:16:46.717Z,2.07
2019-05-29T16:19:18.519Z,2.30
2019-05-29T16:21:50.995Z,2.30
2019-05-29T16:24:23.042Z,2.17
2019-05-29T16:27:07.994Z,3.60
2019-05-29T16:29:29.283Z,5.23
2019-05-29T16:32:00.762Z,2.20
2019-05-29T16:34:32.172Z,2.50
2019-05-29T16:37:03.711Z,2.10
2019-05-29T16:39:35.304Z,1.93
2019-05-29T16:42:07.059Z,4.20
2019-05-29T16:44:38.788Z,2.77
2019-05-29T16:47:10.261Z,3.87
2019-05-29T16:49:41.700Z,2.10
2019-05-29T16:52:13.186Z,3.13
2019-05-29T16:54:44.787Z,3.57
2019-05-29T16:57:17.119Z,2.80
2019-05-29T16:59:48.984Z,3.13
2019-05-29T17:02:21.639Z,3.57
2019-05-29T17:04:53.250Z,2.40
2019-05-29T17:07:24.756Z,4.33
2019-05-29T17:09:56.210Z,3.03
2019-05-29T17:12:27.623Z,3.27
2019-05-29T17:14:59.545Z,2.73
2019-05-29T17:17:31.340Z,2.00
2019-05-29T17:20:02.989Z,2.00
2019-05-29T17:22:34.683Z,3.17
2019-05-29T17:25:07.446Z,3.33
2019-05-29T17:27:39.961Z,2.53
2019-05-29T17:30:12.397Z,3.40
2019-05-29T17:32:43.787Z,3.97
2019-05-29T17:35:15.367Z,2.60
2019-05-29T17:37:46.691Z,2.70
2019-05-29T17:40:19.139Z,3.27
2019-05-29T17:42:51.247Z,2.00
2019-05-29T17:45:25.610Z,3.30
2019-05-29T17:47:55.882Z,2.40
2019-05-29T17:50:28.991Z,3.17
2019-05-29T17:53:00.575Z,5.57
2019-05-29T17:55:32.156Z,3.27
2019-05-29T17:58:03.769Z,5.03
2019-05-29T18:00:35.470Z,2.43
2019-05-29T18:03:07.341Z,5.07
2019-05-29T18:05:39.076Z,2.77
2019-05-29T18:08:10.558Z,3.10
2019-05-29T18:10:41.991Z,2.70
2019-05-29T18:13:13.480Z,3.10
2019-05-29T18:15:45.023Z,3.73
2019-05-29T18:18:17.452Z,2.40
2019-05-29T18:20:50.103Z,2.30
2019-05-29T18:23:21.966Z,2.20
2019-05-29T18:25:53.475Z,3.57
2019-05-29T18:28:26.067Z,3.67
2019-05-29T18:30:57.518Z,3.50
2019-05-29T18:33:29.023Z,3.40
2019-05-29T18:36:00.554Z,3.70
2019-05-29T18:38:32.747Z,2.93
2019-05-29T18:41:04.357Z,5.77
2019-05-29T18:43:35.897Z,2.60
2019-05-29T18:46:07.298Z,2.00
2019-05-29T18:48:38.769Z,3.83
2019-05-29T18:51:10.251Z,2.87
2019-05-29T18:53:41.657Z,4.97
2019-05-29T18:56:13.300Z,4.17
2019-05-29T18:58:44.717Z,2.73
2019-05-29T19:01:16.568Z,3.63
2019-05-29T19:03:48.071Z,2.60
2019-05-29T19:06:19.579Z,3.37
2019-05-29T19:08:51.086Z,8.13
2019-05-29T19:11:23.825Z,3.70
2019-05-29T19:13:55.444Z,5.03
2019-05-29T19:16:27.983Z,3.43
2019-05-29T19:18:59.491Z,5.80
2019-05-29T19:21:31.071Z,3.83
2019-05-29T19:24:02.462Z,2.93
2019-05-29T19:26:36.786Z,2.90
2019-05-29T19:29:07.183Z,4.67
2019-05-29T19:31:42.479Z,3.00
2019-05-29T19:34:12.682Z,8.63
2019-05-29T19:36:44.330Z,8.00
2019-05-29T19:39:15.841Z,3.43
2019-05-29T19:41:47.252Z,5.77
2019-05-29T19:44:18.991Z,3.17
2019-05-29T19:46:54.124Z,3.33
2019-05-29T19:49:25.608Z,3.83
2019-05-29T19:51:58.060Z,4.57
2019-05-29T19:54:29.689Z,3.37
2019-05-29T19:57:01.103Z,3.80
2019-05-29T19:59:34.182Z,6.63
2019-05-29T20:02:05.710Z,5.37
2019-05-29T20:04:37.352Z,4.07
2019-05-29T20:07:08.865Z,3.67
2019-05-29T20:09:40.395Z,6.80
2019-05-29T20:12:12.231Z,4.87
2019-05-29T20:14:43.779Z,5.63
2019-05-29T20:17:15.254Z,4.37
2019-05-29T20:19:46.759Z,3.60
2019-05-29T20:22:18.328Z,4.07
2019-05-29T20:24:49.735Z,4.87
2019-05-29T20:27:21.219Z,4.57
2019-05-29T20:29:53.033Z,4.00
2019-05-29T20:32:25.511Z,4.33
2019-05-29T20:34:57.378Z,6.90
2019-05-29T20:37:30.007Z,3.10
2019-05-29T20:40:02.452Z,5.53
2019-05-29T20:42:34.293Z,5.43
2019-05-29T20:45:06.053Z,4.73
2019-05-29T20:47:38.000Z,5.93
2019-05-29T20:50:10.467Z,6.63
2019-05-29T20:52:42.067Z,5.83
2019-05-29T20:55:14.059Z,6.10
2019-05-29T20:57:45.540Z,12.27
2019-05-29T21:00:18.550Z,5.03
2019-05-29T21:02:50.946Z,4.30
2019-05-29T21:05:22.430Z,4.60
2019-05-29T21:07:56.368Z,4.30
2019-05-29T21:10:27.964Z,4.17
2019-05-29T21:12:59.505Z,3.73
2019-05-29T21:15:31.087Z,3.80
2019-05-29T21:18:02.977Z,4.87
2019-05-29T21:20:34.439Z,3.83
2019-05-29T21:23:05.920Z,3.50
2019-05-29T21:25:38.489Z,9.83
2019-05-29T21:28:10.396Z,5.33
2019-05-29T21:30:43.747Z,3.47
2019-05-29T21:33:15.875Z,3.73
2019-05-29T21:35:48.347Z,6.10
2019-05-29T21:38:19.858Z,5.27
2019-05-29T21:40:51.485Z,4.37
2019-05-29T21:43:23.012Z,4.57
2019-05-29T21:45:54.571Z,5.27
2019-05-29T21:48:26.043Z,7.57
2019-05-29T21:50:57.657Z,7.00
2019-05-29T21:53:30.201Z,5.40
2019-05-29T21:56:01.702Z,5.17
2019-05-29T21:58:33.220Z,5.83
2019-05-29T22:01:05.226Z,5.80
2019-05-29T22:03:38.229Z,3.97
2019-05-29T22:06:10.628Z,5.93
2019-05-29T22:08:42.817Z,4.33
2019-05-29T22:11:14.474Z,6.07
2019-05-29T22:13:46.328Z,5.03
2019-05-29T22:16:17.877Z,6.97
2019-05-29T22:18:50.787Z,5.60
2019-05-29T22:21:22.319Z,6.57
2019-05-29T22:23:55.062Z,7.43
2019-05-29T22:26:26.641Z,5.30
2019-05-29T22:29:16.748Z,6.30
2019-05-29T22:31:32.909Z,5.73
2019-05-29T22:34:04.392Z,7.57
2019-05-29T22:36:36.038Z,5.77
2019-05-29T22:39:07.962Z,8.07
2019-05-29T22:41:39.365Z,6.17
2019-05-29T22:44:10.891Z,9.23
2019-05-29T22:46:42.829Z,4.97
2019-05-29T22:49:14.232Z,6.43
2019-05-29T22:51:45.740Z,5.23
2019-05-29T22:54:17.316Z,6.40
2019-05-29T22:56:48.812Z,6.63
2019-05-29T22:59:31.432Z,5.63
2019-05-29T23:01:54.101Z,5.47
2019-05-29T23:04:25.613Z,9.80
2019-05-29T23:06:58.241Z,5.90
2019-05-29T23:09:30.177Z,5.93
2019-05-29T23:12:02.588Z,6.97
2019-05-29T23:14:34.017Z,4.40
2019-05-29T23:17:05.802Z,8.03
2019-05-29T23:19:37.704Z,6.17
2019-05-29T23:22:09.494Z,5.67
2019-05-29T23:24:40.980Z,5.30
2019-05-29T23:27:12.838Z,6.47
2019-05-29T23:29:49.117Z,5.13
2019-05-29T23:32:17.918Z,5.90
2019-05-29T23:34:49.557Z,5.80
2019-05-29T23:37:21.320Z,4.57
2019-05-29T23:39:53.086Z,6.17
2019-05-29T23:42:24.769Z,5.60
2019-05-29T23:44:57.642Z,4.57
2019-05-29T23:47:29.130Z,4.83
2019-05-29T23:50:02.757Z,6.03
2019-05-29T23:52:34.639Z,5.20
2019-05-29T23:55:06.745Z,5.63
2019-05-29T23:57:38.548Z,7.07
